createdAt,value
2022-11-16T00:00:27.726Z,18.40
2022-11-16T00:02:56.176Z,14.87
2022-11-16T00:05:28.293Z,25.13
2022-11-16T00:07:57.279Z,15.80
2022-11-16T00:10:25.705Z,16.97
2022-11-16T00:12:54.088Z,20.17
2022-11-16T00:15:22.415Z,16.63
2022-11-16T00:17:52.135Z,13.70
2022-11-16T00:20:20.635Z,12.10
2022-11-16T00:22:49.068Z,15.87
2022-11-16T00:25:17.636Z,12.40
2022-11-16T00:27:46.038Z,12.10
2022-11-16T00:30:14.933Z,17.40
2022-11-16T00:32:43.358Z,14.33
2022-11-16T00:35:15.719Z,12.87
2022-11-16T00:37:44.210Z,15.10
2022-11-16T00:40:13.610Z,13.13
2022-11-16T00:42:42.008Z,13.03
2022-11-16T00:45:11.207Z,16.13
2022-11-16T00:47:39.648Z,14.40
2022-11-16T00:50:08.307Z,14.33
2022-11-16T00:52:38.072Z,14.40
2022-11-16T00:55:06.886Z,20.13
2022-11-16T00:57:36.208Z,16.77
2022-11-16T01:00:05.651Z,15.60
2022-11-16T01:02:35.985Z,18.50
2022-11-16T01:05:04.398Z,19.23
2022-11-16T01:07:32.845Z,42.00
2022-11-16T01:10:02.698Z,44.90
2022-11-16T01:12:31.139Z,33.80
2022-11-16T01:15:01.106Z,19.27
2022-11-16T01:17:30.141Z,17.27
2022-11-16T01:19:58.770Z,27.07
2022-11-16T01:22:27.261Z,23.90
2022-11-16T01:24:55.662Z,19.93
2022-11-16T01:27:29.084Z,21.67
2022-11-16T01:29:59.405Z,17.83
2022-11-16T01:32:28.340Z,30.77
2022-11-16T01:34:57.325Z,16.33
2022-11-16T01:37:31.879Z,17.80
2022-11-16T01:40:00.969Z,16.70
2022-11-16T01:42:33.591Z,19.70
2022-11-16T01:45:05.330Z,24.90
2022-11-16T01:47:34.833Z,21.87
2022-11-16T01:50:08.699Z,18.37
2022-11-16T01:52:40.597Z,22.40
2022-11-16T01:55:09.873Z,15.23
2022-11-16T01:57:49.644Z,16.13
2022-11-16T02:00:19.077Z,23.00
2022-11-16T02:03:00.604Z,16.87
2022-11-16T02:05:49.773Z,16.27
2022-11-16T02:08:44.333Z,17.87
2022-11-16T02:11:23.034Z,13.43
2022-11-16T02:13:57.970Z,14.27
2022-11-16T02:16:31.880Z,17.77
2022-11-16T02:19:13.129Z,18.43
2022-11-16T02:21:43.623Z,14.83
2022-11-16T02:24:33.066Z,16.97
2022-11-16T02:27:23.347Z,19.67
2022-11-16T02:29:54.541Z,18.40
2022-11-16T02:32:27.076Z,15.40
2022-11-16T02:34:59.201Z,14.80
2022-11-16T02:37:28.949Z,20.53
2022-11-16T02:39:58.501Z,19.13
2022-11-16T02:42:29.625Z,16.77
2022-11-16T02:44:59.972Z,16.30
2022-11-16T02:47:32.289Z,16.63
2022-11-16T02:50:03.499Z,13.57
2022-11-16T02:52:31.987Z,17.27
2022-11-16T02:55:00.446Z,22.10
2022-11-16T02:57:33.560Z,16.33
2022-11-16T03:00:04.210Z,22.03
2022-11-16T03:02:41.546Z,19.57
2022-11-16T03:05:13.945Z,17.40
2022-11-16T03:07:52.203Z,15.77
2022-11-16T03:10:36.029Z,14.97
2022-11-16T03:13:08.132Z,16.70
2022-11-16T03:15:39.441Z,16.83
2022-11-16T03:18:09.776Z,17.83
2022-11-16T03:20:40.579Z,20.53
2022-11-16T03:23:11.470Z,16.53
2022-11-16T03:25:47.059Z,20.63
2022-11-16T03:28:17.348Z,19.30
2022-11-16T03:30:51.312Z,19.37
2022-11-16T03:33:21.520Z,18.77
2022-11-16T03:35:56.888Z,21.57
2022-11-16T03:38:26.762Z,15.47
2022-11-16T03:40:58.007Z,16.73
2022-11-16T03:43:27.485Z,15.47
2022-11-16T03:45:58.579Z,15.23
2022-11-16T03:48:27.039Z,15.43
2022-11-16T03:50:56.235Z,24.27
2022-11-16T03:53:24.698Z,22.37
2022-11-16T03:55:53.129Z,19.07
2022-11-16T03:58:21.586Z,19.43
2022-11-16T04:00:50.089Z,17.90
2022-11-16T04:03:19.988Z,22.97
2022-11-16T04:06:07.195Z,19.43
2022-11-16T04:08:53.147Z,16.90
2022-11-16T04:11:40.616Z,17.57
2022-11-16T04:14:32.250Z,15.83
2022-11-16T04:17:18.549Z,17.77
2022-11-16T04:20:06.258Z,21.33
2022-11-16T04:22:54.043Z,18.60
2022-11-16T04:25:23.625Z,18.43
2022-11-16T04:28:12.836Z,17.10
2022-11-16T04:31:01.376Z,15.30
2022-11-16T04:33:48.303Z,22.67
2022-11-16T04:36:35.913Z,17.40
2022-11-16T04:39:04.655Z,15.30
2022-11-16T04:41:51.380Z,19.33
2022-11-16T04:44:27.282Z,19.13
2022-11-16T04:47:18.132Z,23.87
2022-11-16T04:49:47.884Z,23.33
2022-11-16T04:52:17.800Z,23.97
2022-11-16T04:54:47.084Z,19.30
2022-11-16T04:57:15.543Z,17.37
2022-11-16T04:59:44.330Z,29.50
2022-11-16T05:02:13.146Z,17.57
2022-11-16T05:04:49.993Z,18.63
2022-11-16T05:07:20.878Z,17.47
2022-11-16T05:09:51.207Z,21.23
2022-11-16T05:12:21.236Z,20.77
2022-11-16T05:14:52.695Z,24.53
2022-11-16T05:17:21.854Z,17.73
2022-11-16T05:20:16.571Z,17.90
2022-11-16T05:22:56.263Z,23.97
2022-11-16T05:25:26.792Z,21.50
2022-11-16T05:27:55.314Z,18.17
2022-11-16T05:30:24.962Z,23.63
2022-11-16T05:32:53.471Z,22.87
2022-11-16T05:35:23.294Z,27.53
2022-11-16T05:37:52.053Z,17.77
2022-11-16T05:40:21.982Z,18.03
2022-11-16T05:42:56.829Z,22.17
2022-11-16T05:45:26.336Z,21.77
2022-11-16T05:47:55.108Z,17.67
2022-11-16T05:50:23.592Z,17.23
2022-11-16T05:53:04.914Z,22.97
2022-11-16T05:55:36.891Z,18.97
2022-11-16T05:58:05.575Z,22.10
2022-11-16T06:00:35.246Z,20.20
2022-11-16T06:03:03.945Z,21.50
2022-11-16T06:05:40.637Z,20.33
2022-11-16T06:08:11.226Z,21.73
2022-11-16T06:10:41.528Z,17.63
2022-11-16T06:13:10.251Z,19.97
2022-11-16T06:15:40.048Z,19.10
2022-11-16T06:18:10.509Z,21.37
2022-11-16T06:20:39.997Z,24.90
2022-11-16T06:23:09.031Z,27.77
2022-11-16T06:25:41.614Z,18.33
2022-11-16T06:28:10.964Z,25.53
2022-11-16T06:30:41.199Z,18.20
2022-11-16T06:33:13.464Z,19.13
2022-11-16T06:35:43.055Z,21.87
2022-11-16T06:38:18.326Z,15.73
2022-11-16T06:40:51.433Z,17.93
2022-11-16T06:43:20.178Z,21.63
2022-11-16T06:45:50.835Z,17.97
2022-11-16T06:48:19.551Z,23.40
2022-11-16T06:50:49.917Z,33.33
2022-11-16T06:53:24.602Z,28.77
2022-11-16T06:55:56.144Z,17.83
2022-11-16T06:58:24.654Z,18.37
2022-11-16T07:00:53.570Z,21.87
2022-11-16T07:03:22.038Z,24.83
2022-11-16T07:05:50.679Z,20.07
2022-11-16T07:08:22.929Z,24.53
2022-11-16T07:10:51.496Z,20.13
2022-11-16T07:13:21.324Z,21.10
2022-11-16T07:15:49.822Z,15.23
2022-11-16T07:18:18.396Z,18.30
2022-11-16T07:20:49.846Z,20.47
2022-11-16T07:23:18.321Z,21.17
2022-11-16T07:25:47.310Z,20.90
2022-11-16T07:28:23.058Z,20.10
2022-11-16T07:30:51.769Z,18.90
2022-11-16T07:33:27.852Z,25.13
2022-11-16T07:36:28.430Z,17.87
2022-11-16T07:38:57.873Z,19.47
2022-11-16T07:41:26.705Z,19.97
2022-11-16T07:44:13.859Z,31.23
2022-11-16T07:46:46.937Z,23.10
2022-11-16T07:49:17.594Z,34.60
2022-11-16T07:51:58.275Z,21.43
2022-11-16T07:54:38.221Z,28.43
2022-11-16T07:57:06.761Z,24.50
2022-11-16T07:59:36.647Z,20.73
2022-11-16T08:02:06.890Z,23.30
2022-11-16T08:04:38.671Z,27.17
2022-11-16T08:07:07.420Z,23.20
2022-11-16T08:09:41.114Z,22.60
2022-11-16T08:12:13.213Z,26.20
2022-11-16T08:14:43.341Z,25.90
2022-11-16T08:17:13.480Z,24.97
2022-11-16T08:19:42.476Z,24.23
2022-11-16T08:22:14.166Z,26.00
2022-11-16T08:24:43.601Z,21.83
2022-11-16T08:27:13.115Z,22.17
2022-11-16T08:29:43.185Z,22.57
2022-11-16T08:32:11.681Z,20.00
2022-11-16T08:34:40.385Z,18.77
2022-11-16T08:37:08.900Z,20.23
2022-11-16T08:39:41.169Z,18.27
2022-11-16T08:42:10.752Z,18.33
2022-11-16T08:44:40.794Z,17.73
2022-11-16T08:47:15.887Z,23.67
2022-11-16T08:49:49.902Z,19.80
2022-11-16T08:52:20.362Z,17.17
2022-11-16T08:54:50.864Z,18.73
2022-11-16T08:57:19.823Z,23.27
2022-11-16T08:59:53.287Z,18.03
2022-11-16T09:02:25.610Z,19.90
2022-11-16T09:04:54.257Z,20.33
2022-11-16T09:07:22.832Z,17.47
2022-11-16T09:09:51.558Z,19.63
2022-11-16T09:12:20.006Z,19.13
2022-11-16T09:14:48.676Z,18.70
2022-11-16T09:17:22.755Z,18.37
2022-11-16T09:19:53.038Z,21.03
2022-11-16T09:22:21.522Z,25.23
2022-11-16T09:24:49.996Z,20.07
2022-11-16T09:27:19.256Z,15.07
2022-11-16T09:29:47.833Z,25.10
2022-11-16T09:32:16.575Z,17.57
2022-11-16T09:34:45.384Z,18.80
2022-11-16T09:37:15.369Z,21.27
2022-11-16T09:39:43.819Z,23.07
2022-11-16T09:42:20.712Z,16.97
2022-11-16T09:44:56.123Z,18.87
2022-11-16T09:47:26.261Z,17.97
2022-11-16T09:50:01.587Z,14.93
2022-11-16T09:52:37.073Z,16.20
2022-11-16T09:55:11.984Z,18.53
2022-11-16T09:57:43.413Z,18.53
2022-11-16T10:00:19.849Z,15.07
2022-11-16T10:02:50.906Z,19.93
2022-11-16T10:05:22.576Z,16.23
2022-11-16T10:07:54.184Z,20.33
2022-11-16T10:10:25.563Z,16.90
2022-11-16T10:12:58.970Z,16.80
2022-11-16T10:15:32.490Z,16.03
2022-11-16T10:18:11.640Z,16.47
2022-11-16T10:20:54.990Z,12.97
2022-11-16T10:23:31.563Z,18.03
2022-11-16T10:26:05.667Z,17.67
2022-11-16T10:28:46.273Z,12.43
2022-11-16T10:31:19.093Z,13.13
2022-11-16T10:33:48.823Z,10.17
2022-11-16T10:36:17.939Z,10.07
2022-11-16T10:38:47.892Z,13.03
2022-11-16T10:41:19.766Z,10.53
2022-11-16T10:43:49.758Z,13.33
2022-11-16T10:46:21.532Z,10.00
2022-11-16T10:48:56.399Z,8.67
2022-11-16T10:51:25.089Z,9.30
2022-11-16T10:53:57.880Z,9.87
2022-11-16T10:56:30.307Z,12.13
2022-11-16T10:58:59.755Z,10.67
2022-11-16T11:01:32.609Z,13.40
2022-11-16T11:04:14.078Z,8.63
2022-11-16T11:06:42.659Z,8.00
2022-11-16T11:09:24.412Z,7.73
2022-11-16T11:12:21.120Z,9.00
2022-11-16T11:15:03.487Z,9.03
2022-11-16T11:17:32.552Z,10.90
2022-11-16T11:20:01.660Z,8.93
2022-11-16T11:22:30.838Z,7.33
2022-11-16T11:25:01.026Z,6.10
2022-11-16T11:27:33.268Z,6.80
2022-11-16T11:30:05.035Z,6.23
2022-11-16T11:32:34.893Z,5.50
2022-11-16T11:35:04.021Z,7.43
2022-11-16T11:37:34.239Z,7.50
2022-11-16T11:40:26.901Z,5.17
2022-11-16T11:42:58.430Z,6.60
2022-11-16T11:45:31.896Z,6.63
2022-11-16T11:48:02.570Z,5.73
2022-11-16T11:50:47.515Z,6.13
2022-11-16T11:53:24.146Z,4.00
2022-11-16T11:55:56.157Z,4.10
2022-11-16T11:58:28.085Z,4.77
2022-11-16T12:01:01.483Z,6.67
2022-11-16T12:03:44.917Z,5.30
2022-11-16T12:06:18.034Z,5.47
2022-11-16T12:09:01.847Z,4.97
2022-11-16T12:11:35.439Z,5.93
2022-11-16T12:14:10.179Z,8.40
2022-11-16T12:16:41.821Z,5.30
2022-11-16T12:19:34.032Z,4.50
2022-11-16T12:22:07.706Z,4.53
2022-11-16T12:24:40.354Z,5.87
2022-11-16T12:27:14.663Z,8.10
2022-11-16T12:29:48.423Z,6.07
2022-11-16T12:32:32.040Z,6.53
2022-11-16T12:35:07.561Z,5.13
2022-11-16T12:37:40.073Z,4.37
2022-11-16T12:40:16.597Z,4.03
2022-11-16T12:42:47.763Z,4.30
2022-11-16T12:45:27.644Z,6.57
2022-11-16T12:48:08.810Z,7.70
2022-11-16T12:50:47.261Z,3.00
2022-11-16T12:53:24.157Z,3.17
2022-11-16T12:55:57.014Z,3.80
2022-11-16T12:58:29.417Z,4.40
2022-11-16T13:01:03.963Z,6.80
2022-11-16T13:03:37.911Z,4.20
2022-11-16T13:06:08.570Z,4.27
2022-11-16T13:08:40.001Z,7.50
2022-11-16T13:11:11.432Z,6.00
2022-11-16T13:13:40.226Z,5.80
2022-11-16T13:16:11.265Z,3.57
2022-11-16T13:18:41.863Z,3.47
2022-11-16T13:21:17.703Z,5.47
2022-11-16T13:23:53.823Z,3.90
2022-11-16T13:26:26.394Z,4.80
2022-11-16T13:28:59.879Z,4.33
2022-11-16T13:31:32.676Z,6.27
2022-11-16T13:34:04.221Z,5.87
2022-11-16T13:36:45.238Z,4.17
2022-11-16T13:39:21.478Z,6.00
2022-11-16T13:41:51.534Z,5.07
2022-11-16T13:44:31.240Z,6.63
2022-11-16T13:47:04.781Z,3.77
2022-11-16T13:49:37.375Z,6.37
2022-11-16T13:52:22.643Z,4.30
2022-11-16T13:54:53.888Z,5.03
2022-11-16T13:57:27.045Z,4.60
2022-11-16T13:59:59.074Z,6.03
2022-11-16T14:02:33.596Z,5.73
2022-11-16T14:05:03.025Z,5.93
2022-11-16T14:07:33.543Z,5.97
2022-11-16T14:10:02.629Z,7.47
2022-11-16T14:12:58.344Z,6.73
2022-11-16T14:15:31.225Z,7.87
2022-11-16T14:18:02.615Z,9.77
2022-11-16T14:20:54.834Z,9.50
2022-11-16T14:23:29.114Z,6.77
2022-11-16T14:26:01.341Z,7.70
2022-11-16T14:28:36.116Z,6.53
2022-11-16T14:31:10.053Z,8.03
2022-11-16T14:33:40.094Z,8.80
2022-11-16T14:36:09.531Z,12.20
2022-11-16T14:38:39.805Z,7.43
2022-11-16T14:41:09.724Z,9.90
2022-11-16T14:43:41.971Z,8.10
2022-11-16T14:46:15.683Z,10.57
2022-11-16T14:48:47.741Z,8.97
2022-11-16T14:51:17.462Z,9.03
2022-11-16T14:53:48.328Z,8.10
2022-11-16T14:56:17.835Z,7.13
2022-11-16T14:58:53.195Z,7.17
2022-11-16T15:01:22.620Z,9.47
2022-11-16T15:03:56.099Z,8.13
2022-11-16T15:06:26.330Z,7.73
2022-11-16T15:08:57.024Z,7.40
2022-11-16T15:11:47.312Z,9.53
2022-11-16T15:14:18.739Z,10.07
2022-11-16T15:16:50.952Z,14.17
2022-11-16T15:19:21.291Z,8.57
2022-11-16T15:21:54.301Z,10.60
2022-11-16T15:24:31.424Z,13.10
2022-11-16T15:27:04.234Z,10.33
2022-11-16T15:29:32.882Z,18.50
2022-11-16T15:32:01.272Z,14.17
2022-11-16T15:34:31.290Z,11.13
2022-11-16T15:36:59.678Z,14.47
2022-11-16T15:39:30.603Z,13.87
2022-11-16T15:42:03.714Z,13.33
2022-11-16T15:44:33.385Z,13.57
2022-11-16T15:47:02.161Z,14.37
2022-11-16T15:49:34.254Z,12.23
2022-11-16T15:52:02.896Z,13.10
2022-11-16T15:54:54.938Z,12.17
2022-11-16T15:57:24.228Z,16.13
2022-11-16T15:59:54.949Z,13.17
2022-11-16T16:02:24.287Z,15.40
2022-11-16T16:04:54.376Z,14.03
2022-11-16T16:07:38.576Z,16.77
2022-11-16T16:10:14.447Z,16.27
2022-11-16T16:12:48.972Z,15.47
2022-11-16T16:15:22.048Z,16.73
2022-11-16T16:17:50.719Z,11.07
2022-11-16T16:20:21.913Z,12.83
2022-11-16T16:22:50.420Z,11.80
2022-11-16T16:25:28.887Z,13.00
2022-11-16T16:27:58.208Z,12.23
2022-11-16T16:30:27.065Z,11.87
2022-11-16T16:32:55.888Z,11.60
2022-11-16T16:35:26.884Z,11.07
2022-11-16T16:37:58.630Z,10.33
2022-11-16T16:40:27.613Z,11.20
2022-11-16T16:42:57.811Z,9.63
2022-11-16T16:45:30.190Z,10.93
2022-11-16T16:47:58.872Z,11.37
2022-11-16T16:50:28.733Z,8.27
2022-11-16T16:52:57.414Z,10.43
2022-11-16T16:55:26.050Z,11.37
2022-11-16T16:57:56.615Z,12.30
2022-11-16T17:00:26.006Z,9.63
2022-11-16T17:02:54.449Z,10.40
2022-11-16T17:05:23.078Z,12.30
2022-11-16T17:07:52.809Z,11.43
2022-11-16T17:10:21.389Z,12.33
2022-11-16T17:12:49.989Z,13.03
2022-11-16T17:15:19.633Z,12.50
2022-11-16T17:17:48.146Z,13.10
2022-11-16T17:20:17.511Z,10.77
2022-11-16T17:22:46.137Z,15.23
2022-11-16T17:25:15.960Z,14.27
2022-11-16T17:27:44.400Z,15.80
2022-11-16T17:30:13.638Z,15.13
2022-11-16T17:32:42.070Z,15.77
2022-11-16T17:35:11.038Z,12.23
2022-11-16T17:37:39.846Z,17.80
2022-11-16T17:40:09.088Z,14.10
2022-11-16T17:42:38.857Z,11.87
2022-11-16T17:45:07.830Z,9.60
2022-11-16T17:47:36.327Z,10.43
2022-11-16T17:50:04.739Z,11.10
2022-11-16T17:52:33.164Z,13.33
2022-11-16T17:55:01.729Z,11.77
2022-11-16T17:57:30.212Z,15.23
2022-11-16T18:00:03.224Z,13.23
2022-11-16T18:02:33.569Z,21.60
2022-11-16T18:05:05.210Z,16.13
2022-11-16T18:07:34.459Z,12.67
2022-11-16T18:10:02.892Z,14.67
2022-11-16T18:12:31.340Z,24.73
2022-11-16T18:15:27.033Z,27.23
2022-11-16T18:17:49.557Z,29.80
2022-11-16T18:20:19.708Z,24.00
2022-11-16T18:22:48.148Z,19.00
2022-11-16T18:25:16.889Z,13.50
2022-11-16T18:27:45.585Z,13.47
2022-11-16T18:30:15.495Z,16.17
2022-11-16T18:32:45.431Z,20.07
2022-11-16T18:35:13.861Z,19.97
2022-11-16T18:37:42.491Z,16.87
2022-11-16T18:40:12.226Z,17.47
2022-11-16T18:42:41.745Z,12.53
2022-11-16T18:45:10.712Z,12.40
2022-11-16T18:47:39.193Z,14.53
2022-11-16T18:50:18.203Z,14.03
2022-11-16T18:52:47.550Z,12.63
2022-11-16T18:55:16.075Z,14.50
2022-11-16T18:57:44.588Z,12.63
2022-11-16T19:00:15.136Z,13.23
2022-11-16T19:02:43.646Z,19.90
2022-11-16T19:05:13.530Z,18.13
2022-11-16T19:07:41.873Z,16.07
2022-11-16T19:10:10.978Z,17.30
2022-11-16T19:12:39.560Z,41.53
2022-11-16T19:15:08.531Z,27.33
2022-11-16T19:17:48.191Z,15.30
2022-11-16T19:20:27.028Z,16.67
2022-11-16T19:22:55.649Z,18.87
2022-11-16T19:25:24.121Z,13.47
2022-11-16T19:27:52.771Z,16.10
2022-11-16T19:30:21.428Z,11.07
2022-11-16T19:32:49.818Z,10.20
2022-11-16T19:35:18.681Z,19.20
2022-11-16T19:37:48.471Z,11.13
2022-11-16T19:40:22.217Z,12.47
2022-11-16T19:42:54.718Z,10.23
2022-11-16T19:45:23.134Z,13.00
2022-11-16T19:47:51.550Z,12.00
2022-11-16T19:50:20.113Z,13.03
2022-11-16T19:52:49.959Z,12.00
2022-11-16T19:55:18.576Z,11.67
2022-11-16T19:57:48.176Z,8.77
2022-11-16T20:00:17.427Z,18.37
2022-11-16T20:02:45.873Z,18.30
2022-11-16T20:05:14.484Z,24.07
2022-11-16T20:07:44.661Z,11.27
2022-11-16T20:10:14.489Z,16.23
2022-11-16T20:12:43.518Z,14.43
2022-11-16T20:15:12.090Z,16.50
2022-11-16T20:17:41.596Z,15.83
2022-11-16T20:20:10.586Z,10.73
2022-11-16T20:22:39.039Z,12.97
2022-11-16T20:25:07.997Z,13.60
2022-11-16T20:27:37.792Z,14.67
2022-11-16T20:30:09.790Z,12.87
2022-11-16T20:32:38.415Z,15.97
2022-11-16T20:35:07.123Z,10.73
2022-11-16T20:37:36.706Z,12.80
2022-11-16T20:40:05.360Z,18.13
2022-11-16T20:42:33.878Z,11.53
2022-11-16T20:45:03.878Z,13.60
2022-11-16T20:47:32.451Z,17.40
2022-11-16T20:50:00.880Z,12.07
2022-11-16T20:52:29.381Z,13.63
2022-11-16T20:54:58.284Z,11.90
2022-11-16T20:57:26.736Z,11.93
2022-11-16T20:59:55.339Z,17.23
2022-11-16T21:02:26.186Z,16.10
2022-11-16T21:04:59.908Z,15.17
2022-11-16T21:07:30.803Z,14.97
2022-11-16T21:10:17.003Z,12.77
2022-11-16T21:13:03.086Z,17.00
2022-11-16T21:15:31.692Z,18.77
2022-11-16T21:18:01.631Z,17.13
2022-11-16T21:20:30.234Z,17.20
2022-11-16T21:22:58.746Z,19.30
2022-11-16T21:25:27.473Z,18.77
2022-11-16T21:27:57.075Z,18.07
2022-11-16T21:30:25.530Z,16.80
2022-11-16T21:32:54.145Z,13.80
2022-11-16T21:35:26.280Z,17.37
2022-11-16T21:37:54.807Z,16.43
2022-11-16T21:40:23.455Z,21.20
2022-11-16T21:42:52.945Z,15.30
2022-11-16T21:45:21.710Z,15.90
2022-11-16T21:47:51.869Z,20.90
2022-11-16T21:50:35.527Z,16.87
2022-11-16T21:53:05.569Z,17.50
2022-11-16T21:55:34.377Z,15.70
2022-11-16T21:58:04.031Z,19.53
2022-11-16T22:00:32.503Z,16.77
2022-11-16T22:03:00.960Z,19.37
2022-11-16T22:05:46.947Z,16.20
2022-11-16T22:08:19.465Z,16.40
2022-11-16T22:10:51.823Z,18.53
2022-11-16T22:13:20.264Z,17.30
2022-11-16T22:15:48.753Z,14.20
2022-11-16T22:18:17.143Z,21.83
2022-11-16T22:20:48.721Z,15.97
2022-11-16T22:23:22.835Z,16.17
2022-11-16T22:25:52.179Z,17.20
2022-11-16T22:28:21.474Z,16.80
2022-11-16T22:30:52.065Z,17.40
2022-11-16T22:33:20.743Z,16.40
2022-11-16T22:35:49.238Z,18.20
2022-11-16T22:38:18.997Z,15.93
2022-11-16T22:40:50.735Z,17.03
2022-11-16T22:43:19.275Z,13.97
2022-11-16T22:45:47.807Z,14.80
2022-11-16T22:48:16.476Z,15.80
2022-11-16T22:50:46.075Z,19.77
2022-11-16T22:53:14.689Z,14.33
2022-11-16T22:55:44.676Z,16.40
2022-11-16T22:58:13.212Z,15.03
2022-11-16T23:00:42.320Z,17.93
2022-11-16T23:03:10.982Z,17.57
2022-11-16T23:05:39.497Z,13.23
2022-11-16T23:08:08.145Z,15.63
2022-11-16T23:10:57.318Z,12.37
2022-11-16T23:13:44.920Z,16.43
2022-11-16T23:16:13.358Z,16.37
2022-11-16T23:18:41.797Z,17.87
2022-11-16T23:21:28.300Z,16.27
2022-11-16T23:24:13.388Z,14.77
2022-11-16T23:26:59.494Z,13.13
2022-11-16T23:29:29.322Z,14.67
2022-11-16T23:31:57.784Z,14.90
2022-11-16T23:34:26.456Z,11.20
2022-11-16T23:36:55.081Z,14.67
2022-11-16T23:39:23.511Z,14.40
2022-11-16T23:42:09.860Z,13.73
2022-11-16T23:44:39.623Z,13.27
2022-11-16T23:47:08.060Z,13.80
2022-11-16T23:49:36.459Z,16.73
2022-11-16T23:52:05.043Z,12.03
2022-11-16T23:54:33.443Z,12.50
2022-11-16T23:57:02.305Z,12.63
2022-11-16T23:59:30.757Z,13.07
